메인 페이지
METAR-TAF:

METAR-TAF

공항 :

지부티, 지부티

위도: 11-33N, 경도: 043-10E, 고도: 49m

현재 날씨관측

예보는 2 시간 20분 전, 10:00시(UTC)에 발표되었습니다.
12kt
온도 30°C
습도 75%
기압 1013 hPa
시정 10km 이상
고도 2300ft 상공 구름 조금

METAR: HDAM 171000Z 08012KT 9999 FEW023 30/25 Q1013

시각: 15:20 (12:20 UTC)

예보

예보는 2 시간 20분 전, 10:00시(UTC)에 발표되었습니다.
예보 대상 시간: 17일 12시부터 18일 12시까지 (UTC)
10kt
시정 10km 이상
고도 2000ft 상공 구름 조금
전환 중
17일 15시부터 17일 21시까지 (UTC)
여러 방향의 바람 5kt
맑음
전환 중
18일 00시부터 18일 06시까지 (UTC)
kt
시정: 8000m
고도 2000ft 상공 구름 보통
연무

TAF: HDAM 171000Z 1712/1812 08010KT 9999 FEW020 BECMG 1715/1721 VRB05KT SKC BECMG 1800/1806 00000KT 8000 HZ SCT020

4,000개 이상의 공항 관측 자료 및 예보 (METAR 및 TAF 보고).

지도상에서 검색 가능한 기상관측소가 노란 점과 빨간 점으로 표시되어 있습니다.

기상관측소 명을 보려면 표시 위로 마우스를 이동하세요.

날씨 관측과 예보를 보려면 클릭하세요.

지도 변경 : 확대하려면 엑스 표시가 있는 녹색 버튼, 축소하려면 빼기 표시가 있는 녹색 버튼, 다음 페이지의 지도를 보려면 녹색 화살표를 클릭하세요.


METAR-TAF: